createdAt,value
2023-03-26T16:06:30.724Z,96.80
2023-03-26T16:09:29.090Z,96.90
2023-03-26T16:11:58.956Z,96.80
2023-03-26T16:14:44.168Z,96.70
2023-03-26T16:17:17.404Z,97.10
2023-03-26T16:20:06.486Z,96.70
2023-03-26T16:22:46.391Z,96.70
2023-03-26T16:25:27.494Z,96.70
2023-03-26T16:28:29.983Z,96.70
2023-03-26T16:31:37.583Z,96.70
2023-03-26T16:34:22.533Z,96.60
2023-03-26T16:36:51.614Z,96.50
2023-03-26T16:39:40.835Z,96.40
2023-03-26T16:42:32.340Z,96.70
2023-03-26T16:45:12.975Z,96.80
2023-03-26T16:47:52.672Z,96.70
2023-03-26T16:50:29.984Z,96.70
2023-03-26T16:53:05.792Z,96.60
2023-03-26T16:55:43.425Z,96.70
2023-03-26T16:58:22.984Z,96.70
2023-03-26T17:00:55.772Z,96.50
2023-03-26T17:03:45.978Z,96.60
2023-03-26T17:06:34.674Z,96.70
2023-03-26T17:09:09.463Z,96.70
2023-03-26T17:11:49.883Z,96.60
2023-03-26T17:14:29.286Z,96.70
2023-03-26T17:17:24.392Z,96.50
2023-03-26T17:20:02.226Z,96.70
2023-03-26T17:22:39.324Z,96.80
2023-03-26T17:25:22.484Z,96.90
2023-03-26T17:28:07.370Z,96.80
2023-03-26T17:31:02.045Z,96.90
2023-03-26T17:33:34.693Z,96.80
2023-03-26T17:36:31.472Z,96.90
2023-03-26T17:39:43.495Z,96.80
2023-03-26T17:42:27.807Z,96.60
2023-03-26T17:44:56.534Z,96.80
2023-03-26T17:47:32.451Z,96.60
2023-03-26T17:50:05.204Z,96.90
2023-03-26T17:52:48.872Z,96.90
2023-03-26T17:55:20.114Z,96.80
2023-03-26T17:57:53.612Z,96.60
2023-03-26T18:00:24.432Z,96.90
2023-03-26T18:02:57.321Z,97.00
2023-03-26T18:05:29.007Z,97.10
2023-03-26T18:08:38.879Z,97.00
2023-03-26T18:11:33.264Z,97.00
2023-03-26T18:14:45.614Z,96.90
2023-03-26T18:17:13.657Z,96.60
2023-03-26T18:19:50.064Z,96.50
2023-03-26T18:22:23.154Z,96.50
2023-03-26T18:24:51.879Z,96.50
2023-03-26T18:27:23.289Z,96.40
2023-03-26T18:30:03.114Z,96.50
2023-03-26T18:32:33.178Z,96.60
2023-03-26T18:35:02.840Z,96.80
2023-03-26T18:37:33.363Z,96.80
2023-03-26T18:40:11.183Z,96.70
2023-03-26T18:42:40.822Z,96.90
2023-03-26T18:45:21.771Z,96.90
2023-03-26T18:47:51.420Z,96.90
2023-03-26T18:50:24.860Z,96.90
2023-03-26T18:52:52.901Z,96.70
2023-03-26T18:55:20.773Z,96.90
2023-03-26T18:57:51.707Z,97.00
2023-03-26T19:00:25.326Z,97.00
2023-03-26T19:03:02.888Z,96.90
2023-03-26T19:05:33.667Z,96.90
2023-03-26T19:08:04.841Z,97.00
2023-03-26T19:10:33.672Z,97.00
2023-03-26T19:13:03.998Z,97.00
2023-03-26T19:15:35.371Z,97.10
2023-03-26T19:18:09.679Z,96.90
2023-03-26T19:20:42.282Z,97.20
2023-03-26T19:23:15.654Z,97.20
2023-03-26T19:25:47.450Z,97.20
2023-03-26T19:28:18.659Z,97.10
2023-03-26T19:30:49.746Z,97.30
2023-03-26T19:33:21.112Z,97.30
2023-03-26T19:35:53.955Z,97.50
2023-03-26T19:38:24.747Z,97.40
2023-03-26T19:40:55.909Z,97.60
2023-03-26T19:43:24.737Z,97.70
2023-03-26T19:45:59.583Z,97.70
2023-03-26T19:48:46.548Z,97.60
2023-03-26T19:51:21.350Z,97.50
2023-03-26T19:53:54.884Z,97.50
2023-03-26T19:56:23.205Z,97.60
2023-03-26T19:58:51.613Z,97.40
2023-03-26T20:01:23.667Z,97.40
2023-03-26T20:03:54.267Z,97.70
2023-03-26T20:06:33.902Z,97.50
2023-03-26T20:09:06.212Z,97.50
2023-03-26T20:11:37.813Z,97.50
2023-03-26T20:14:13.392Z,97.30
2023-03-26T20:16:44.980Z,97.50
2023-03-26T20:19:14.335Z,97.30
2023-03-26T20:21:43.332Z,97.40
2023-03-26T20:24:14.584Z,96.90
2023-03-26T20:26:42.531Z,97.90
2023-03-26T20:29:11.600Z,97.70
2023-03-26T20:31:41.279Z,98.00
2023-03-26T20:34:17.169Z,97.80
2023-03-26T20:36:46.077Z,97.70
2023-03-26T20:39:14.679Z,97.80
2023-03-26T20:41:46.035Z,97.50
2023-03-26T20:44:16.413Z,98.00
2023-03-26T20:46:45.067Z,97.80
2023-03-26T20:49:14.915Z,97.70
2023-03-26T20:51:45.126Z,97.80
2023-03-26T20:54:21.215Z,97.80
2023-03-26T20:56:49.836Z,97.70
2023-03-26T20:59:21.938Z,97.80
2023-03-26T21:01:51.174Z,97.70
2023-03-26T21:04:21.238Z,97.70
2023-03-26T21:06:49.821Z,97.70
2023-03-26T21:09:23.589Z,97.60
2023-03-26T21:11:59.261Z,97.70
2023-03-26T21:14:31.973Z,97.60
2023-03-26T21:17:00.354Z,97.70
2023-03-26T21:19:30.234Z,97.40
2023-03-26T21:22:04.829Z,97.70
2023-03-26T21:24:49.276Z,97.50
2023-03-26T21:27:26.061Z,97.80
2023-03-26T21:29:55.063Z,97.60
2023-03-26T21:32:24.147Z,97.70
2023-03-26T21:37:25.623Z,97.50
2023-03-26T21:39:53.924Z,97.40
2023-03-26T21:42:22.373Z,97.30
2023-03-26T21:44:50.612Z,97.30
2023-03-26T21:47:18.871Z,97.40
2023-03-26T21:49:47.265Z,97.30
2023-03-26T21:52:16.919Z,97.50
2023-03-26T21:54:45.508Z,97.50
2023-03-26T21:57:30.785Z,97.50
2023-03-26T22:00:15.201Z,97.40
2023-03-26T22:02:54.084Z,97.60
2023-03-26T22:05:28.139Z,97.20
2023-03-26T22:07:59.748Z,97.30
2023-03-26T22:10:27.773Z,97.30
2023-03-26T22:12:55.649Z,97.40
2023-03-26T22:15:25.916Z,97.20
2023-03-26T22:17:55.676Z,97.40
2023-03-26T22:20:25.117Z,97.40
2023-03-26T22:22:55.088Z,97.50
2023-03-26T22:25:25.009Z,97.50
2023-03-26T22:27:53.836Z,97.50
2023-03-26T22:30:21.930Z,97.40
2023-03-26T22:32:50.332Z,97.40
2023-03-26T22:35:18.386Z,97.10
2023-03-26T22:37:47.356Z,97.50
2023-03-26T22:40:15.281Z,97.50
2023-03-26T22:42:44.513Z,97.30
2023-03-26T22:45:12.946Z,97.50
2023-03-26T22:47:41.004Z,97.50
2023-03-26T22:50:10.677Z,97.30
2023-03-26T22:52:40.554Z,97.40
2023-03-26T22:55:10.930Z,97.10
2023-03-26T22:57:38.979Z,97.50
2023-03-26T23:00:16.296Z,97.40
2023-03-26T23:02:45.852Z,97.20
2023-03-26T23:05:14.317Z,97.50
2023-03-26T23:07:42.474Z,97.40
2023-03-26T23:10:11.380Z,97.30
2023-03-26T23:12:39.349Z,97.00
